createdAt,value
2023-04-09T00:00:12.245Z,4.56
2023-04-09T00:01:12.222Z,4.58
2023-04-09T00:02:12.313Z,4.56
2023-04-09T00:03:12.264Z,4.56
2023-04-09T00:04:12.200Z,4.56
2023-04-09T00:05:12.224Z,4.55
2023-04-09T00:06:12.174Z,4.53
2023-04-09T00:07:12.166Z,4.53
2023-04-09T00:08:12.130Z,4.52
2023-04-09T00:09:12.145Z,4.50
2023-04-09T00:10:12.123Z,4.50
2023-04-09T00:11:12.102Z,4.52
2023-04-09T00:12:12.098Z,4.50
2023-04-09T00:13:12.076Z,4.50
2023-04-09T00:14:12.063Z,4.50
2023-04-09T00:15:20.588Z,4.50
2023-04-09T00:16:13.111Z,4.49
2023-04-09T00:17:12.038Z,4.49
2023-04-09T00:18:12.015Z,4.48
2023-04-09T00:19:11.998Z,4.48
2023-04-09T00:20:11.979Z,4.48
2023-04-09T00:21:11.982Z,4.45
2023-04-09T00:22:11.965Z,4.45
2023-04-09T00:23:12.959Z,4.45
2023-04-09T00:24:11.968Z,4.44
2023-04-09T00:25:11.918Z,4.45
2023-04-09T00:26:11.920Z,4.45
2023-04-09T00:27:11.893Z,4.41
2023-04-09T00:28:11.893Z,4.42
2023-04-09T00:29:11.872Z,4.42
2023-04-09T00:30:11.847Z,4.42
2023-04-09T00:31:11.895Z,4.42
2023-04-09T00:32:11.842Z,4.42
2023-04-09T00:33:11.833Z,4.41
2023-04-09T00:34:11.799Z,4.40
2023-04-09T00:35:11.797Z,4.41
2023-04-09T00:36:11.829Z,4.40
2023-04-09T00:37:11.777Z,4.40
2023-04-09T00:38:11.769Z,4.38
2023-04-09T00:39:11.735Z,4.37
2023-04-09T00:40:11.728Z,4.37
2023-04-09T00:41:11.733Z,4.35
2023-04-09T00:42:11.698Z,4.35
2023-04-09T00:43:11.690Z,4.34
2023-04-09T00:44:11.678Z,4.34
2023-04-09T00:45:11.670Z,4.32
2023-04-09T00:46:11.726Z,4.32
2023-04-09T00:47:11.666Z,4.32
2023-04-09T00:48:11.627Z,4.31
2023-04-09T00:49:11.647Z,4.31
2023-04-09T00:50:11.616Z,4.30
2023-04-09T00:51:11.597Z,4.31
2023-04-09T00:52:11.570Z,4.30
2023-04-09T00:53:11.579Z,4.28
2023-04-09T00:54:11.543Z,4.26
2023-04-09T00:55:11.540Z,4.28
2023-04-09T00:56:11.526Z,4.24
2023-04-09T00:57:11.526Z,4.23
2023-04-09T00:58:11.487Z,4.24
2023-04-09T00:59:11.495Z,4.22
2023-04-09T01:00:11.477Z,4.22
2023-04-09T01:01:11.560Z,4.22
2023-04-09T01:02:11.472Z,4.19
2023-04-09T01:03:11.516Z,4.20
2023-04-09T01:04:11.431Z,4.19
2023-04-09T01:05:11.389Z,4.19
2023-04-09T01:06:11.404Z,4.17
2023-04-09T01:07:11.377Z,4.16
2023-04-09T01:08:11.588Z,4.17
2023-04-09T01:09:11.364Z,4.16
2023-04-09T01:10:11.328Z,4.14
2023-04-09T01:11:11.331Z,4.13
2023-04-09T01:12:11.311Z,4.13
2023-04-09T01:13:11.300Z,4.13
2023-04-09T01:14:11.341Z,4.12
2023-04-09T01:15:11.260Z,4.12
2023-04-09T01:16:11.301Z,4.10
2023-04-09T01:17:11.237Z,4.12
2023-04-09T01:18:11.223Z,4.10
2023-04-09T01:19:11.229Z,4.10
2023-04-09T01:20:11.194Z,4.08
2023-04-09T01:21:11.194Z,4.06
2023-04-09T01:22:11.180Z,4.08
2023-04-09T01:23:11.402Z,4.06
2023-04-09T01:24:11.176Z,4.06
2023-04-09T01:25:11.148Z,4.08
2023-04-09T01:26:11.129Z,4.05
2023-04-09T01:27:11.127Z,4.05
2023-04-09T01:28:11.089Z,4.05
2023-04-09T01:29:11.097Z,4.02
2023-04-09T01:30:11.067Z,4.05
2023-04-09T01:31:11.106Z,4.04
2023-04-09T01:32:11.042Z,4.04
2023-04-09T01:33:11.131Z,4.02
2023-04-09T01:34:11.028Z,4.02
2023-04-09T01:35:11.000Z,4.02
2023-04-09T01:36:11.026Z,3.99
2023-04-09T01:37:10.997Z,4.01
2023-04-09T01:38:11.026Z,3.99
2023-04-09T01:39:10.961Z,4.01
2023-04-09T01:40:10.961Z,3.99
2023-04-09T01:41:10.932Z,3.98
2023-04-09T01:42:10.926Z,3.96
2023-04-09T01:43:10.917Z,3.98
2023-04-09T01:44:10.878Z,3.96
2023-04-09T01:45:10.884Z,3.96
2023-04-09T01:46:10.926Z,3.96
2023-04-09T01:47:10.875Z,3.95
2023-04-09T01:48:11.026Z,3.94
2023-04-09T01:49:10.840Z,3.92
2023-04-09T01:50:10.798Z,3.95
2023-04-09T01:51:10.828Z,3.94
2023-04-09T01:52:10.796Z,3.94
2023-04-09T01:53:10.788Z,3.92
2023-04-09T01:54:10.762Z,3.92
2023-04-09T01:55:10.747Z,3.92
2023-04-09T01:56:10.736Z,3.92
2023-04-09T01:57:10.735Z,3.92
2023-04-09T01:58:10.733Z,3.91
2023-04-09T01:59:10.706Z,3.91
2023-04-09T02:00:10.731Z,3.91
2023-04-09T02:01:10.720Z,3.91
2023-04-09T02:02:10.738Z,3.91
2023-04-09T02:03:10.717Z,3.88
2023-04-09T02:04:10.643Z,3.88
2023-04-09T02:05:10.643Z,3.87
2023-04-09T02:06:10.607Z,3.87
2023-04-09T02:07:10.592Z,3.86
2023-04-09T02:08:10.575Z,3.87
2023-04-09T02:09:10.588Z,3.86
2023-04-09T02:10:10.539Z,3.86
2023-04-09T02:11:10.557Z,3.84
2023-04-09T02:12:10.514Z,3.86
2023-04-09T02:13:10.537Z,3.86
2023-04-09T02:14:10.504Z,3.84
2023-04-09T02:15:10.500Z,3.86
2023-04-09T02:16:10.528Z,3.86
2023-04-09T02:17:10.454Z,3.84
2023-04-09T02:18:10.428Z,3.81
2023-04-09T02:19:10.451Z,3.83
2023-04-09T02:20:10.440Z,3.83
2023-04-09T02:21:10.490Z,3.81
2023-04-09T02:22:10.389Z,3.81
2023-04-09T02:23:10.397Z,3.81
2023-04-09T02:24:10.369Z,3.83
2023-04-09T02:25:10.399Z,3.80
2023-04-09T02:26:10.353Z,3.81
2023-04-09T02:27:10.350Z,3.80
2023-04-09T02:28:10.325Z,3.78
2023-04-09T02:29:10.298Z,3.81
2023-04-09T02:30:10.295Z,3.80
2023-04-09T02:31:10.367Z,3.80
2023-04-09T02:32:10.259Z,3.78
2023-04-09T02:33:10.256Z,3.78
2023-04-09T02:34:10.229Z,3.78
2023-04-09T02:35:10.602Z,3.78
2023-04-09T02:36:10.244Z,3.78
2023-04-09T02:37:10.213Z,3.78
2023-04-09T02:38:10.178Z,3.77
2023-04-09T02:39:10.182Z,3.77
2023-04-09T02:40:10.175Z,3.77
2023-04-09T02:41:10.180Z,3.76
2023-04-09T02:42:10.141Z,3.76
2023-04-09T02:43:10.121Z,3.76
2023-04-09T02:44:10.125Z,3.74
2023-04-09T02:45:10.108Z,3.76
2023-04-09T02:46:10.085Z,3.76
2023-04-09T02:47:10.281Z,3.76
2023-04-09T02:48:10.054Z,3.74
2023-04-09T02:49:10.044Z,3.76
2023-04-09T02:50:10.021Z,3.74
2023-04-09T02:51:10.025Z,3.73
2023-04-09T02:52:10.014Z,3.74
2023-04-09T02:53:09.996Z,3.74
2023-04-09T02:54:09.995Z,3.73
2023-04-09T02:55:09.994Z,3.73
2023-04-09T02:56:09.978Z,3.73
2023-04-09T02:57:09.945Z,3.70
2023-04-09T02:58:09.926Z,3.70
2023-04-09T02:59:09.918Z,3.70
2023-04-09T03:00:09.915Z,3.70
2023-04-09T03:01:09.914Z,3.70
2023-04-09T03:02:10.016Z,3.70
2023-04-09T03:03:10.012Z,3.69
2023-04-09T03:04:09.940Z,3.68
2023-04-09T03:05:09.897Z,3.69
2023-04-09T03:06:09.863Z,3.69
2023-04-09T03:07:09.837Z,3.69
2023-04-09T03:08:09.803Z,3.69
2023-04-09T03:09:09.809Z,3.70
2023-04-09T03:10:09.796Z,3.69
2023-04-09T03:11:09.818Z,3.69
2023-04-09T03:12:09.768Z,3.69
2023-04-09T03:13:09.797Z,3.66
2023-04-09T03:14:09.733Z,3.66
2023-04-09T03:15:09.716Z,3.66
2023-04-09T03:16:09.714Z,3.66
2023-04-09T03:17:09.694Z,3.66
2023-04-09T03:18:09.687Z,3.66
2023-04-09T03:19:09.664Z,3.66
2023-04-09T03:20:09.644Z,3.65
2023-04-09T03:21:09.646Z,3.65
2023-04-09T03:22:09.620Z,3.63
2023-04-09T03:23:09.692Z,3.65
2023-04-09T03:24:09.594Z,3.63
2023-04-09T03:25:09.585Z,3.65
2023-04-09T03:26:09.564Z,3.63
2023-04-09T03:27:09.556Z,3.63
2023-04-09T03:28:09.518Z,3.62
2023-04-09T03:29:09.520Z,3.62
2023-04-09T03:30:09.501Z,3.60
2023-04-09T03:31:09.525Z,3.60
2023-04-09T03:32:09.485Z,3.60
2023-04-09T03:33:09.564Z,3.60
2023-04-09T03:34:09.446Z,3.60
2023-04-09T03:35:09.452Z,3.59
2023-04-09T03:36:09.439Z,3.59
2023-04-09T03:37:09.439Z,3.59
2023-04-09T03:38:09.402Z,3.59
2023-04-09T03:39:09.379Z,3.59
2023-04-09T03:40:09.395Z,3.59
2023-04-09T03:41:09.366Z,3.56
2023-04-09T03:42:09.380Z,3.58
2023-04-09T03:43:09.355Z,3.58
2023-04-09T03:44:09.369Z,3.55
2023-04-09T03:45:09.330Z,3.56
2023-04-09T03:46:09.328Z,3.55
2023-04-09T03:47:09.287Z,3.53
2023-04-09T03:48:09.377Z,3.53
2023-04-09T03:49:09.281Z,3.53
2023-04-09T03:50:09.273Z,3.53
2023-04-09T03:51:09.274Z,3.50
2023-04-09T03:52:09.230Z,3.51
2023-04-09T03:53:09.206Z,3.50
2023-04-09T03:54:09.178Z,3.48
2023-04-09T03:55:09.189Z,3.48
2023-04-09T03:56:09.178Z,3.48
2023-04-09T03:57:09.180Z,3.48
2023-04-09T03:58:09.206Z,3.47
2023-04-09T03:59:09.116Z,3.48
2023-04-09T04:00:09.121Z,3.47
2023-04-09T04:01:09.094Z,3.47
2023-04-09T04:02:09.160Z,3.47
2023-04-09T04:03:09.244Z,3.47
2023-04-09T04:04:09.144Z,3.47
2023-04-09T04:05:09.061Z,3.47
2023-04-09T04:06:09.042Z,3.45
2023-04-09T04:07:09.029Z,3.45
2023-04-09T04:08:09.055Z,3.45
2023-04-09T04:09:08.999Z,3.45
2023-04-09T04:10:09.185Z,3.45
2023-04-09T04:11:08.966Z,3.47
2023-04-09T04:12:08.964Z,3.45
2023-04-09T04:13:08.970Z,3.45
2023-04-09T04:14:08.913Z,3.44
2023-04-09T04:15:08.920Z,3.47
2023-04-09T04:16:08.924Z,3.45
2023-04-09T04:17:08.902Z,3.45
2023-04-09T04:18:08.876Z,3.45
2023-04-09T04:19:08.859Z,3.45
2023-04-09T04:20:09.036Z,3.47
2023-04-09T04:21:08.826Z,3.45
2023-04-09T04:22:08.870Z,3.45
2023-04-09T04:23:08.802Z,3.45
2023-04-09T04:24:08.807Z,3.44
2023-04-09T04:25:08.785Z,3.45
2023-04-09T04:26:08.760Z,3.47
2023-04-09T04:27:08.756Z,3.45
2023-04-09T04:28:08.735Z,3.44
2023-04-09T04:29:08.721Z,3.45
2023-04-09T04:30:08.725Z,3.45
2023-04-09T04:31:08.696Z,3.45
2023-04-09T04:32:08.704Z,3.45
2023-04-09T04:33:08.669Z,3.47
2023-04-09T04:34:08.659Z,3.47
2023-04-09T04:35:08.772Z,3.45
2023-04-09T04:36:08.633Z,3.45
2023-04-09T04:37:08.641Z,3.47
2023-04-09T04:38:08.615Z,3.48
2023-04-09T04:39:08.602Z,3.48
2023-04-09T04:40:08.593Z,3.47
2023-04-09T04:41:08.591Z,3.47
2023-04-09T04:42:08.632Z,3.48
2023-04-09T04:43:08.546Z,3.48
2023-04-09T04:44:08.539Z,3.48
2023-04-09T04:45:08.563Z,3.48
2023-04-09T04:46:08.602Z,3.48
2023-04-09T04:47:08.526Z,3.50
2023-04-09T04:48:08.587Z,3.50
2023-04-09T04:49:08.484Z,3.51
2023-04-09T04:50:08.465Z,3.53
2023-04-09T04:51:08.443Z,3.51
2023-04-09T04:52:08.474Z,3.53
2023-04-09T04:53:08.432Z,3.53
2023-04-09T04:54:08.506Z,3.55
2023-04-09T04:55:08.404Z,3.55
2023-04-09T04:56:08.410Z,3.55
2023-04-09T04:57:08.396Z,3.56
2023-04-09T04:58:08.362Z,3.58
2023-04-09T04:59:08.356Z,3.56
2023-04-09T05:00:08.325Z,3.58
2023-04-09T05:01:08.411Z,3.58
2023-04-09T05:02:08.530Z,3.59
2023-04-09T05:03:08.345Z,3.60
2023-04-09T05:04:08.324Z,3.59
2023-04-09T05:05:08.255Z,3.59
2023-04-09T05:06:08.252Z,3.62
2023-04-09T05:07:08.226Z,3.62
2023-04-09T05:08:08.228Z,3.62
2023-04-09T05:09:08.191Z,3.63
2023-04-09T05:10:08.196Z,3.63
2023-04-09T05:11:08.176Z,3.63
2023-04-09T05:12:08.174Z,3.65
2023-04-09T05:13:08.143Z,3.66
2023-04-09T05:14:08.150Z,3.66
2023-04-09T05:15:08.136Z,3.68
2023-04-09T05:16:08.123Z,3.69
2023-04-09T05:17:08.157Z,3.69
2023-04-09T05:18:08.107Z,3.69
2023-04-09T05:19:08.097Z,3.73
2023-04-09T05:20:08.058Z,3.73
2023-04-09T05:21:08.032Z,3.73
2023-04-09T05:22:08.073Z,3.74
2023-04-09T05:23:08.025Z,3.74
2023-04-09T05:24:08.041Z,3.74
2023-04-09T05:25:08.026Z,3.76
2023-04-09T05:26:08.009Z,3.77
2023-04-09T05:27:07.973Z,3.78
2023-04-09T05:28:07.950Z,3.80
2023-04-09T05:29:07.945Z,3.78
2023-04-09T05:30:07.986Z,3.80
2023-04-09T05:31:07.933Z,3.80
2023-04-09T05:32:07.909Z,3.83
2023-04-09T05:33:07.870Z,3.86
2023-04-09T05:34:07.882Z,3.86
2023-04-09T05:35:07.867Z,3.84
2023-04-09T05:36:07.917Z,3.88
2023-04-09T05:37:07.843Z,3.88
2023-04-09T05:38:07.856Z,3.91
2023-04-09T05:39:07.822Z,3.92
2023-04-09T05:40:07.815Z,3.94
2023-04-09T05:41:07.778Z,3.95
2023-04-09T05:42:07.810Z,3.96
2023-04-09T05:43:07.762Z,3.96
2023-04-09T05:44:07.771Z,3.98
2023-04-09T05:45:07.730Z,3.99
2023-04-09T05:46:07.783Z,3.99
2023-04-09T05:47:07.773Z,4.01
2023-04-09T05:48:07.715Z,4.04
2023-04-09T05:49:07.728Z,4.05
2023-04-09T05:50:07.690Z,4.06
2023-04-09T05:51:07.734Z,4.10
2023-04-09T05:52:07.656Z,4.13
2023-04-09T05:53:07.631Z,4.14
2023-04-09T05:54:07.622Z,4.17
2023-04-09T05:55:07.601Z,4.23
2023-04-09T05:56:07.592Z,4.22
2023-04-09T05:57:07.580Z,4.24
2023-04-09T05:58:07.552Z,4.26
2023-04-09T05:59:07.532Z,4.28
2023-04-09T06:00:07.556Z,4.31
2023-04-09T06:01:07.603Z,4.35
2023-04-09T06:02:07.625Z,4.37
2023-04-09T06:03:07.628Z,4.37
2023-04-09T06:04:07.583Z,4.40
2023-04-09T06:05:07.470Z,4.38
2023-04-09T06:06:07.477Z,4.41
2023-04-09T06:07:07.444Z,4.42
2023-04-09T06:08:07.430Z,4.44
2023-04-09T06:09:07.413Z,4.48
2023-04-09T06:10:07.421Z,4.49
2023-04-09T06:11:07.383Z,4.49
2023-04-09T06:12:07.392Z,4.50
2023-04-09T06:13:07.386Z,4.52
2023-04-09T06:14:07.368Z,4.52
2023-04-09T06:15:07.376Z,4.56
2023-04-09T06:16:07.431Z,4.55
2023-04-09T06:17:07.337Z,4.58
2023-04-09T06:18:07.374Z,4.58
2023-04-09T06:19:07.284Z,4.60
2023-04-09T06:20:07.297Z,4.60
2023-04-09T06:21:07.272Z,4.62
2023-04-09T06:22:07.270Z,4.63
2023-04-09T06:23:07.241Z,4.63
2023-04-09T06:24:07.226Z,4.67
2023-04-09T06:25:07.217Z,4.68
2023-04-09T06:26:07.215Z,4.71
2023-04-09T06:27:07.169Z,4.71
2023-04-09T06:28:07.175Z,4.74
2023-04-09T06:29:07.154Z,4.75
2023-04-09T06:30:07.136Z,4.77
2023-04-09T06:31:07.138Z,4.80
2023-04-09T06:32:07.122Z,4.82
2023-04-09T06:33:07.234Z,4.86
2023-04-09T06:34:07.119Z,4.87
2023-04-09T06:35:08.315Z,4.90
2023-04-09T06:36:07.155Z,4.90
2023-04-09T06:37:07.047Z,4.92
2023-04-09T06:38:07.049Z,4.94
2023-04-09T06:39:07.282Z,4.94
2023-04-09T06:40:07.137Z,4.97
2023-04-09T06:41:07.006Z,5.00
2023-04-09T06:42:07.009Z,5.02
2023-04-09T06:43:06.985Z,5.04
2023-04-09T06:44:07.129Z,5.07
2023-04-09T06:45:06.948Z,5.10
2023-04-09T06:46:06.956Z,5.11
2023-04-09T06:47:06.915Z,5.14
2023-04-09T06:48:06.998Z,5.17
2023-04-09T06:49:06.877Z,5.17
2023-04-09T06:50:06.923Z,5.20
2023-04-09T06:51:06.893Z,5.21
2023-04-09T06:52:06.852Z,5.25
2023-04-09T06:53:06.895Z,5.28
2023-04-09T06:54:07.031Z,5.30
2023-04-09T06:55:06.839Z,5.33
2023-04-09T06:56:06.860Z,5.35
2023-04-09T06:57:07.039Z,5.39
2023-04-09T06:58:06.806Z,5.43
2023-04-09T06:59:06.874Z,5.47
2023-04-09T07:00:06.852Z,5.48
2023-04-09T07:01:06.911Z,5.47
2023-04-09T07:02:06.846Z,5.53
2023-04-09T07:03:06.834Z,5.54
2023-04-09T07:04:07.136Z,5.57
2023-04-09T07:05:06.729Z,5.59
2023-04-09T07:06:06.700Z,5.61
2023-04-09T07:07:06.696Z,5.64
2023-04-09T07:08:06.743Z,5.65
2023-04-09T07:09:06.649Z,5.66
2023-04-09T07:10:06.816Z,5.72
2023-04-09T07:11:06.733Z,5.73
2023-04-09T07:12:06.618Z,5.75
2023-04-09T07:13:06.608Z,5.76
2023-04-09T07:14:06.571Z,5.80
2023-04-09T07:15:06.701Z,5.82
2023-04-09T07:16:06.574Z,5.86
2023-04-09T07:17:06.596Z,5.89
2023-04-09T07:18:06.572Z,5.91
2023-04-09T07:19:06.648Z,5.93
2023-04-09T07:20:06.599Z,5.98
2023-04-09T07:21:06.477Z,6.01
2023-04-09T07:22:06.479Z,6.02
2023-04-09T07:23:06.444Z,6.07
2023-04-09T07:24:06.436Z,6.08
2023-04-09T07:25:06.437Z,6.11
2023-04-09T07:26:06.584Z,6.16
2023-04-09T07:27:06.385Z,6.19
2023-04-09T07:28:06.441Z,6.20
2023-04-09T07:29:06.527Z,6.24
2023-04-09T07:30:06.379Z,6.26
2023-04-09T07:31:06.356Z,6.28
2023-04-09T07:32:06.310Z,6.31
2023-04-09T07:33:06.377Z,6.35
2023-04-09T07:34:06.295Z,6.38
2023-04-09T07:35:06.297Z,6.41
2023-04-09T07:36:06.320Z,6.42
2023-04-09T07:37:06.270Z,6.48
2023-04-09T07:38:06.245Z,6.48
2023-04-09T07:39:06.223Z,6.52
2023-04-09T07:40:06.235Z,6.56
2023-04-09T07:41:06.259Z,6.60
2023-04-09T07:42:06.183Z,6.63
2023-04-09T07:43:06.192Z,6.67
2023-04-09T07:44:06.278Z,6.72
2023-04-09T07:45:06.155Z,6.75
2023-04-09T07:46:06.149Z,6.78
2023-04-09T07:47:06.159Z,6.82
2023-04-09T07:48:06.111Z,6.87
2023-04-09T07:49:06.101Z,6.89
2023-04-09T07:50:06.101Z,6.93
2023-04-09T07:51:06.077Z,6.96
2023-04-09T07:52:06.051Z,6.97
2023-04-09T07:53:06.080Z,7.00
2023-04-09T07:54:06.027Z,7.03
2023-04-09T07:55:06.009Z,7.06
2023-04-09T07:56:05.999Z,7.11
2023-04-09T07:57:05.980Z,7.13
2023-04-09T07:58:05.980Z,7.15
2023-04-09T07:59:05.973Z,7.18
2023-04-09T08:00:05.953Z,7.21
2023-04-09T08:01:05.923Z,7.25
2023-04-09T08:02:05.957Z,7.31
2023-04-09T08:03:06.054Z,7.36
2023-04-09T08:04:05.984Z,7.39
2023-04-09T08:05:05.910Z,7.45
2023-04-09T08:06:05.890Z,7.48
2023-04-09T08:07:05.854Z,7.51
2023-04-09T08:08:05.856Z,7.56
2023-04-09T08:09:05.819Z,7.58
2023-04-09T08:10:05.812Z,7.60
2023-04-09T08:11:05.796Z,7.63
2023-04-09T08:12:05.787Z,7.63
2023-04-09T08:13:05.782Z,7.70
2023-04-09T08:14:05.756Z,7.70
2023-04-09T08:15:05.762Z,7.73
2023-04-09T08:16:05.767Z,7.73
2023-04-09T08:17:05.787Z,7.76
2023-04-09T08:18:05.753Z,7.77
2023-04-09T08:19:05.708Z,7.82
2023-04-09T08:20:05.692Z,7.87
2023-04-09T08:21:05.670Z,7.90
2023-04-09T08:22:05.702Z,7.93
2023-04-09T08:23:05.689Z,7.95
2023-04-09T08:24:05.674Z,8.00
2023-04-09T08:25:05.618Z,8.05
2023-04-09T08:26:05.665Z,8.08
2023-04-09T08:27:09.271Z,8.12
2023-04-09T08:28:05.601Z,8.15
2023-04-09T08:29:05.569Z,8.18
2023-04-09T08:30:05.549Z,8.20
2023-04-09T08:31:05.541Z,8.20
2023-04-09T08:32:05.553Z,8.24
2023-04-09T08:33:05.638Z,8.27
2023-04-09T08:34:05.505Z,8.27
2023-04-09T08:35:05.501Z,8.28
2023-04-09T08:36:05.482Z,8.30
2023-04-09T08:37:05.469Z,8.28
2023-04-09T08:38:05.465Z,8.31
2023-04-09T08:39:05.436Z,8.30
2023-04-09T08:40:05.416Z,8.31
2023-04-09T08:41:05.418Z,8.34
2023-04-09T08:42:05.406Z,8.36
2023-04-09T08:43:05.400Z,8.36
2023-04-09T08:44:05.368Z,8.36
2023-04-09T08:45:05.372Z,8.37
2023-04-09T08:46:05.366Z,8.36
2023-04-09T08:47:05.334Z,8.37
2023-04-09T08:48:05.396Z,8.37
2023-04-09T08:49:05.305Z,8.42
2023-04-09T08:50:05.288Z,8.45
2023-04-09T08:51:05.287Z,8.48
2023-04-09T08:52:05.673Z,8.49
2023-04-09T08:53:05.267Z,8.53
2023-04-09T08:54:05.444Z,8.56
2023-04-09T08:55:05.293Z,8.58
2023-04-09T08:56:05.210Z,8.60
2023-04-09T08:57:05.198Z,8.58
2023-04-09T08:58:05.205Z,8.63
2023-04-09T08:59:05.170Z,8.64
2023-04-09T09:00:05.160Z,8.67
2023-04-09T09:01:05.163Z,8.69
2023-04-09T09:02:05.209Z,8.71
2023-04-09T09:03:05.355Z,8.71
2023-04-09T09:04:05.171Z,8.71
2023-04-09T09:05:05.101Z,8.71
2023-04-09T09:06:05.085Z,8.70
2023-04-09T09:07:05.062Z,8.71
2023-04-09T09:08:05.059Z,8.71
2023-04-09T09:09:05.033Z,8.73
2023-04-09T09:10:05.051Z,8.76
2023-04-09T09:11:05.021Z,8.78
2023-04-09T09:12:04.992Z,8.78
2023-04-09T09:13:05.013Z,8.79
2023-04-09T09:14:04.989Z,8.82
2023-04-09T09:15:05.001Z,8.84
2023-04-09T09:16:04.975Z,8.84
2023-04-09T09:17:04.992Z,8.87
2023-04-09T09:18:04.973Z,8.89
2023-04-09T09:19:04.904Z,8.95
2023-04-09T09:20:04.952Z,8.99
2023-04-09T09:21:04.883Z,9.08
2023-04-09T09:22:04.872Z,9.10
2023-04-09T09:23:04.863Z,9.16
2023-04-09T09:24:04.854Z,9.23
2023-04-09T09:25:04.832Z,9.29
2023-04-09T09:26:05.044Z,9.36
2023-04-09T09:27:04.818Z,9.41
2023-04-09T09:28:04.794Z,9.46
2023-04-09T09:29:04.777Z,9.51
2023-04-09T09:30:04.761Z,9.59
2023-04-09T09:31:04.770Z,9.65
2023-04-09T09:32:04.732Z,9.76
2023-04-09T09:33:04.731Z,9.80
2023-04-09T09:34:04.708Z,9.87
2023-04-09T09:35:04.699Z,9.91
2023-04-09T09:36:04.743Z,9.98
2023-04-09T09:37:05.078Z,9.99
2023-04-09T09:38:04.689Z,10.05
2023-04-09T09:39:04.656Z,10.05
2023-04-09T09:40:04.634Z,10.15
2023-04-09T09:41:04.667Z,10.19
2023-04-09T09:42:04.602Z,10.23
2023-04-09T09:43:04.603Z,10.28
2023-04-09T09:44:04.574Z,10.33
2023-04-09T09:45:04.571Z,10.37
2023-04-09T09:46:04.594Z,10.41
2023-04-09T09:47:04.571Z,10.48
2023-04-09T09:48:04.578Z,10.56
2023-04-09T09:49:04.526Z,10.67
2023-04-09T09:50:04.500Z,10.79
2023-04-09T09:51:04.499Z,10.99
2023-04-09T09:52:04.471Z,11.30
2023-04-09T09:53:04.476Z,11.77
2023-04-09T09:54:04.455Z,12.27
2023-04-09T09:55:04.435Z,12.50
2023-04-09T09:56:04.431Z,12.64
2023-04-09T09:57:04.421Z,12.78
2023-04-09T09:58:04.410Z,12.85
2023-04-09T09:59:04.385Z,12.93
2023-04-09T10:00:04.422Z,13.01
2023-04-09T10:01:04.399Z,13.13
2023-04-09T10:02:04.489Z,13.22
2023-04-09T10:03:04.417Z,13.44
2023-04-09T10:04:04.346Z,13.65
2023-04-09T10:05:04.308Z,13.87
2023-04-09T10:06:04.289Z,14.00
2023-04-09T10:07:04.292Z,14.18
2023-04-09T10:08:04.268Z,14.44
2023-04-09T10:09:04.254Z,14.50
2023-04-09T10:10:04.235Z,14.54
2023-04-09T10:11:04.259Z,14.59
2023-04-09T10:12:04.204Z,14.78
2023-04-09T10:13:04.203Z,14.94
2023-04-09T10:14:04.177Z,14.99
2023-04-09T10:15:04.187Z,14.96
2023-04-09T10:16:04.193Z,15.00
2023-04-09T10:17:04.255Z,15.02
2023-04-09T10:18:04.169Z,15.10
2023-04-09T10:19:04.140Z,15.46
2023-04-09T10:20:04.102Z,15.67
2023-04-09T10:21:04.099Z,15.92
2023-04-09T10:22:04.067Z,16.01
2023-04-09T10:23:04.086Z,16.00
2023-04-09T10:24:04.138Z,15.94
2023-04-09T10:25:04.054Z,15.91
2023-04-09T10:26:04.054Z,15.91
2023-04-09T10:27:04.060Z,15.92
2023-04-09T10:28:04.009Z,16.12
2023-04-09T10:29:03.995Z,16.29
2023-04-09T10:30:03.973Z,16.56
2023-04-09T10:31:04.010Z,16.74
2023-04-09T10:32:03.949Z,16.74
2023-04-09T10:33:04.000Z,16.75
2023-04-09T10:34:03.950Z,16.72
2023-04-09T10:35:03.957Z,16.69
2023-04-09T10:36:03.982Z,16.91
2023-04-09T10:37:03.894Z,17.31
2023-04-09T10:38:03.864Z,17.68
2023-04-09T10:39:03.857Z,18.05
2023-04-09T10:40:03.833Z,18.19
2023-04-09T10:41:03.844Z,18.40
2023-04-09T10:42:03.806Z,18.74
2023-04-09T10:43:03.799Z,18.99
2023-04-09T10:44:03.805Z,19.16
2023-04-09T10:45:03.817Z,19.39
2023-04-09T10:46:03.833Z,19.56
2023-04-09T10:47:03.797Z,19.56
2023-04-09T10:48:03.737Z,19.76
2023-04-09T10:49:03.733Z,19.99
2023-04-09T10:50:03.704Z,20.22
2023-04-09T10:51:03.700Z,20.47
2023-04-09T10:52:03.685Z,20.65
2023-04-09T10:53:03.660Z,20.80
2023-04-09T10:54:03.678Z,20.92
2023-04-09T10:55:03.641Z,21.02
2023-04-09T10:56:03.642Z,21.11
2023-04-09T10:57:03.611Z,21.18
2023-04-09T10:58:03.599Z,21.24
2023-04-09T10:59:03.603Z,21.25
2023-04-09T11:00:03.595Z,21.29
2023-04-09T11:01:03.592Z,21.29
2023-04-09T11:02:03.631Z,21.30
2023-04-09T11:03:03.793Z,21.29
2023-04-09T11:04:03.526Z,21.29
2023-04-09T11:05:03.682Z,21.32
2023-04-09T11:06:03.486Z,21.32
2023-04-09T11:07:03.479Z,21.33
2023-04-09T11:08:03.496Z,21.33
2023-04-09T11:09:03.485Z,21.35
2023-04-09T11:10:03.432Z,21.36
2023-04-09T11:11:03.502Z,21.35
2023-04-09T11:12:03.432Z,21.30
2023-04-09T11:13:03.395Z,21.24
2023-04-09T11:14:03.409Z,21.20
2023-04-09T11:15:03.365Z,21.15
2023-04-09T11:16:03.468Z,21.12
2023-04-09T11:17:03.347Z,21.15
2023-04-09T11:18:03.416Z,21.15
2023-04-09T11:19:03.347Z,21.09
2023-04-09T11:20:03.308Z,21.02
2023-04-09T11:21:03.298Z,20.95
2023-04-09T11:22:03.279Z,20.93
2023-04-09T11:23:03.291Z,20.95
2023-04-09T11:24:03.251Z,21.00
2023-04-09T11:25:03.232Z,20.99
2023-04-09T11:26:03.258Z,21.05
2023-04-09T11:27:03.246Z,21.09
2023-04-09T11:28:03.208Z,20.97
2023-04-09T11:29:03.200Z,20.92
2023-04-09T11:30:03.179Z,20.97
2023-04-09T11:31:03.239Z,21.00
2023-04-09T11:32:03.159Z,21.06
2023-04-09T11:33:03.492Z,21.14
2023-04-09T11:34:03.145Z,21.12
2023-04-09T11:35:03.110Z,21.11
2023-04-09T11:36:03.093Z,21.06
2023-04-09T11:37:03.083Z,21.07
2023-04-09T11:38:03.138Z,21.12
2023-04-09T11:39:03.114Z,21.03
2023-04-09T11:40:03.033Z,20.93
2023-04-09T11:41:03.072Z,20.87
2023-04-09T11:42:03.030Z,20.87
2023-04-09T11:43:03.002Z,20.88
2023-04-09T11:44:02.992Z,20.87
2023-04-09T11:45:02.964Z,20.95
2023-04-09T11:46:02.944Z,20.93
2023-04-09T11:47:03.094Z,20.87
2023-04-09T11:48:03.214Z,20.81
2023-04-09T11:49:02.929Z,20.75
2023-04-09T11:50:02.892Z,20.70
2023-04-09T11:51:02.883Z,20.66
2023-04-09T11:52:02.872Z,20.65
2023-04-09T11:53:02.872Z,20.75
2023-04-09T11:54:02.856Z,20.84
2023-04-09T11:55:02.835Z,20.85
2023-04-09T11:56:02.821Z,20.93
2023-04-09T11:57:02.812Z,20.97
2023-04-09T11:58:02.808Z,20.95
2023-04-09T11:59:02.792Z,21.03
2023-04-09T12:00:05.090Z,21.12
2023-04-09T12:01:02.753Z,21.22
2023-04-09T12:02:02.802Z,21.30
2023-04-09T12:03:03.312Z,21.37
2023-04-09T12:04:03.016Z,21.40
2023-04-09T12:05:02.798Z,21.45
2023-04-09T12:06:02.932Z,21.46
2023-04-09T12:07:02.675Z,21.50
2023-04-09T12:08:02.685Z,21.55
2023-04-09T12:09:02.655Z,21.57
2023-04-09T12:10:02.626Z,21.55
2023-04-09T12:11:02.687Z,21.60
2023-04-09T12:12:02.630Z,21.62
2023-04-09T12:13:02.675Z,21.69
2023-04-09T12:14:02.604Z,21.77
2023-04-09T12:15:02.577Z,21.85
2023-04-09T12:16:02.609Z,21.89
2023-04-09T12:17:02.569Z,21.80
2023-04-09T12:18:02.578Z,21.77
2023-04-09T12:19:02.524Z,21.80
2023-04-09T12:20:02.503Z,21.85
2023-04-09T12:21:02.497Z,21.89
2023-04-09T12:22:02.495Z,21.98
2023-04-09T12:23:02.470Z,22.08
2023-04-09T12:24:02.472Z,22.10
2023-04-09T12:25:02.466Z,22.15
2023-04-09T12:26:02.646Z,22.20
2023-04-09T12:27:02.400Z,22.28
2023-04-09T12:28:02.406Z,22.18
2023-04-09T12:29:02.380Z,22.04
2023-04-09T12:30:02.392Z,21.92
2023-04-09T12:31:02.350Z,21.93
2023-04-09T12:32:02.387Z,21.82
2023-04-09T12:33:02.386Z,21.83
2023-04-09T12:34:02.331Z,21.92
2023-04-09T12:35:02.337Z,22.02
2023-04-09T12:36:02.374Z,22.15
2023-04-09T12:37:02.272Z,22.23
2023-04-09T12:38:02.261Z,22.28
2023-04-09T12:39:02.249Z,22.38
2023-04-09T12:40:02.254Z,22.48
2023-04-09T12:41:02.220Z,22.50
2023-04-09T12:42:02.214Z,22.48
2023-04-09T12:43:02.209Z,22.53
2023-04-09T12:44:02.198Z,22.59
2023-04-09T12:45:02.233Z,22.57
2023-04-09T12:46:02.204Z,22.63
2023-04-09T12:47:02.134Z,22.54
2023-04-09T12:48:02.230Z,22.48
2023-04-09T12:49:02.126Z,22.47
2023-04-09T12:50:02.111Z,22.39
2023-04-09T12:51:02.102Z,22.43
2023-04-09T12:52:02.082Z,22.47
2023-04-09T12:53:02.047Z,22.50
2023-04-09T12:54:02.054Z,22.51
2023-04-09T12:55:02.026Z,22.48
2023-04-09T12:56:02.026Z,22.44
2023-04-09T12:57:02.000Z,22.41
2023-04-09T12:58:01.987Z,22.36
2023-04-09T12:59:02.008Z,22.41
2023-04-09T13:00:01.979Z,22.38
2023-04-09T13:01:01.958Z,22.35
2023-04-09T13:02:02.050Z,22.36
2023-04-09T13:03:02.096Z,22.32
2023-04-09T13:04:02.025Z,22.26
2023-04-09T13:05:01.890Z,22.25
2023-04-09T13:06:01.916Z,22.25
2023-04-09T13:07:01.900Z,22.28
2023-04-09T13:08:01.863Z,22.28
2023-04-09T13:09:01.856Z,22.29
2023-04-09T13:10:01.845Z,22.32
2023-04-09T13:11:01.863Z,22.32